sensor_id;sensor_type;location;lat;lon;timestamp;temperature;humidity
33067;DHT22;19428;49.024;8.366;2023-04-29T00:00:58;14.40;99.90
33067;DHT22;19428;49.024;8.366;2023-04-29T00:03:23;14.30;99.90
33067;DHT22;19428;49.024;8.366;2023-04-29T00:05:49;14.30;99.90
33067;DHT22;19428;49.024;8.366;2023-04-29T00:08:15;14.40;99.90
33067;DHT22;19428;49.024;8.366;2023-04-29T00:10:40;14.40;99.90
33067;DHT22;19428;49.024;8.366;2023-04-29T00:13:06;14.30;99.90
33067;DHT22;19428;49.024;8.366;2023-04-29T00:15:31;14.20;99.90
33067;DHT22;19428;49.024;8.366;2023-04-29T00:17:57;14.20;99.90
33067;DHT22;19428;49.024;8.366;2023-04-29T00:20:22;14.20;99.90
33067;DHT22;19428;49.024;8.366;2023-04-29T00:22:48;14.20;99.90
33067;DHT22;19428;49.024;8.366;2023-04-29T00:25:14;14.10;99.90
33067;DHT22;19428;49.024;8.366;2023-04-29T00:27:40;14.10;99.90
33067;DHT22;19428;49.024;8.366;2023-04-29T00:30:07;14.00;99.90
33067;DHT22;19428;49.024;8.366;2023-04-29T00:32:32;14.00;99.90
33067;DHT22;19428;49.024;8.366;2023-04-29T00:34:59;14.00;99.90
33067;DHT22;19428;49.024;8.366;2023-04-29T00:37:24;14.00;99.90
33067;DHT22;19428;49.024;8.366;2023-04-29T00:39:50;14.00;99.90
33067;DHT22;19428;49.024;8.366;2023-04-29T00:42:15;13.90;99.90
33067;DHT22;19428;49.024;8.366;2023-04-29T00:44:41;14.00;99.90
33067;DHT22;19428;49.024;8.366;2023-04-29T00:47:06;14.00;99.90
33067;DHT22;19428;49.024;8.366;2023-04-29T00:49:37;14.00;99.90
33067;DHT22;19428;49.024;8.366;2023-04-29T00:52:03;14.00;99.90
33067;DHT22;19428;49.024;8.366;2023-04-29T00:54:28;13.90;99.90
33067;DHT22;19428;49.024;8.366;2023-04-29T00:56:55;13.90;99.90
33067;DHT22;19428;49.024;8.366;2023-04-29T00:59:21;13.90;99.90
33067;DHT22;19428;49.024;8.366;2023-04-29T01:01:50;13.90;99.90
33067;DHT22;19428;49.024;8.366;2023-04-29T01:04:16;14.00;99.90
33067;DHT22;19428;49.024;8.366;2023-04-29T01:07:13;14.00;99.90
33067;DHT22;19428;49.024;8.366;2023-04-29T01:09:52;13.90;99.90
33067;DHT22;19428;49.024;8.366;2023-04-29T01:17:45;13.80;99.90
33067;DHT22;19428;49.024;8.366;2023-04-29T01:20:13;13.70;99.90
33067;DHT22;19428;49.024;8.366;2023-04-29T01:22:39;13.70;99.90
33067;DHT22;19428;49.024;8.366;2023-04-29T01:25:06;13.70;99.90
33067;DHT22;19428;49.024;8.366;2023-04-29T01:33:09;13.60;99.90
33067;DHT22;19428;49.024;8.366;2023-04-29T01:35:58;13.60;99.90
33067;DHT22;19428;49.024;8.366;2023-04-29T01:38:46;13.60;99.90
33067;DHT22;19428;49.024;8.366;2023-04-29T01:44:07;13.70;99.90
33067;DHT22;19428;49.024;8.366;2023-04-29T01:46:36;13.70;99.90
33067;DHT22;19428;49.024;8.366;2023-04-29T01:49:02;13.70;99.90
33067;DHT22;19428;49.024;8.366;2023-04-29T01:51:28;13.70;99.90
33067;DHT22;19428;49.024;8.366;2023-04-29T01:53:54;13.70;99.90
33067;DHT22;19428;49.024;8.366;2023-04-29T01:56:19;13.60;99.90
33067;DHT22;19428;49.024;8.366;2023-04-29T01:58:45;13.60;99.90
33067;DHT22;19428;49.024;8.366;2023-04-29T02:01:10;13.60;99.90
33067;DHT22;19428;49.024;8.366;2023-04-29T02:03:37;13.50;99.90
33067;DHT22;19428;49.024;8.366;2023-04-29T02:06:03;13.50;99.90
33067;DHT22;19428;49.024;8.366;2023-04-29T02:08:31;13.40;99.90
33067;DHT22;19428;49.024;8.366;2023-04-29T02:11:03;13.50;99.90
33067;DHT22;19428;49.024;8.366;2023-04-29T02:13:29;13.50;99.90
33067;DHT22;19428;49.024;8.366;2023-04-29T02:15:55;13.50;99.90
33067;DHT22;19428;49.024;8.366;2023-04-29T02:18:20;13.40;99.90
33067;DHT22;19428;49.024;8.366;2023-04-29T02:20:46;13.40;99.90
33067;DHT22;19428;49.024;8.366;2023-04-29T02:23:11;13.40;99.90
33067;DHT22;19428;49.024;8.366;2023-04-29T02:25:38;13.40;99.90
33067;DHT22;19428;49.024;8.366;2023-04-29T02:28:04;13.40;99.90
33067;DHT22;19428;49.024;8.366;2023-04-29T02:30:29;13.40;99.90
33067;DHT22;19428;49.024;8.366;2023-04-29T02:32:55;13.40;99.90
33067;DHT22;19428;49.024;8.366;2023-04-29T02:35:21;13.30;99.90
33067;DHT22;19428;49.024;8.366;2023-04-29T02:37:46;13.30;99.90
33067;DHT22;19428;49.024;8.366;2023-04-29T02:40:12;13.30;99.90
33067;DHT22;19428;49.024;8.366;2023-04-29T02:42:37;13.20;99.90
33067;DHT22;19428;49.024;8.366;2023-04-29T02:45:03;13.20;99.90
33067;DHT22;19428;49.024;8.366;2023-04-29T02:47:29;13.20;99.90
33067;DHT22;19428;49.024;8.366;2023-04-29T02:49:54;13.20;99.90
33067;DHT22;19428;49.024;8.366;2023-04-29T02:52:20;13.20;99.90
33067;DHT22;19428;49.024;8.366;2023-04-29T02:54:46;13.10;99.90
33067;DHT22;19428;49.024;8.366;2023-04-29T02:57:11;13.10;99.90
33067;DHT22;19428;49.024;8.366;2023-04-29T02:59:37;13.00;99.90
33067;DHT22;19428;49.024;8.366;2023-04-29T03:02:02;13.00;99.90
33067;DHT22;19428;49.024;8.366;2023-04-29T03:04:28;12.90;99.90
33067;DHT22;19428;49.024;8.366;2023-04-29T03:06:54;13.00;99.90
33067;DHT22;19428;49.024;8.366;2023-04-29T03:09:21;12.90;99.90
33067;DHT22;19428;49.024;8.366;2023-04-29T03:11:47;12.90;99.90
33067;DHT22;19428;49.024;8.366;2023-04-29T03:14:12;12.90;99.90
33067;DHT22;19428;49.024;8.366;2023-04-29T03:16:38;12.80;99.90
33067;DHT22;19428;49.024;8.366;2023-04-29T03:19:04;12.80;99.90
33067;DHT22;19428;49.024;8.366;2023-04-29T03:21:29;12.80;99.90
33067;DHT22;19428;49.024;8.366;2023-04-29T03:23:55;12.80;99.90
33067;DHT22;19428;49.024;8.366;2023-04-29T03:26:21;12.70;99.90
33067;DHT22;19428;49.024;8.366;2023-04-29T03:28:48;12.80;99.90
33067;DHT22;19428;49.024;8.366;2023-04-29T03:31:14;12.80;99.90
33067;DHT22;19428;49.024;8.366;2023-04-29T03:33:41;12.70;99.90
33067;DHT22;19428;49.024;8.366;2023-04-29T03:36:06;12.80;99.90
33067;DHT22;19428;49.024;8.366;2023-04-29T03:38:33;12.70;99.90
33067;DHT22;19428;49.024;8.366;2023-04-29T03:40:59;12.80;99.90
33067;DHT22;19428;49.024;8.366;2023-04-29T03:43:25;12.70;99.90
33067;DHT22;19428;49.024;8.366;2023-04-29T03:45:50;12.70;99.90
33067;DHT22;19428;49.024;8.366;2023-04-29T03:48:17;12.70;99.90
33067;DHT22;19428;49.024;8.366;2023-04-29T03:50:42;12.60;99.90
33067;DHT22;19428;49.024;8.366;2023-04-29T03:53:08;12.60;99.90
33067;DHT22;19428;49.024;8.366;2023-04-29T03:55:34;12.50;99.90
33067;DHT22;19428;49.024;8.366;2023-04-29T03:57:59;12.50;99.90
33067;DHT22;19428;49.024;8.366;2023-04-29T04:00:25;12.40;99.90
33067;DHT22;19428;49.024;8.366;2023-04-29T04:02:51;12.40;99.90
33067;DHT22;19428;49.024;8.366;2023-04-29T04:05:17;12.40;99.90
33067;DHT22;19428;49.024;8.366;2023-04-29T04:07:45;12.40;99.90
33067;DHT22;19428;49.024;8.366;2023-04-29T04:10:11;12.30;99.90
33067;DHT22;19428;49.024;8.366;2023-04-29T04:12:36;12.30;99.90
33067;DHT22;19428;49.024;8.366;2023-04-29T04:15:02;12.30;99.90
33067;DHT22;19428;49.024;8.366;2023-04-29T04:17:28;12.30;99.90
33067;DHT22;19428;49.024;8.366;2023-04-29T04:19:54;12.20;99.90
33067;DHT22;19428;49.024;8.366;2023-04-29T04:22:20;12.20;99.90
33067;DHT22;19428;49.024;8.366;2023-04-29T04:24:45;12.30;99.90
33067;DHT22;19428;49.024;8.366;2023-04-29T04:27:11;12.30;99.90
33067;DHT22;19428;49.024;8.366;2023-04-29T04:29:37;12.30;99.90
33067;DHT22;19428;49.024;8.366;2023-04-29T04:32:03;12.20;99.90
33067;DHT22;19428;49.024;8.366;2023-04-29T04:34:29;12.20;99.90
33067;DHT22;19428;49.024;8.366;2023-04-29T04:36:55;12.10;99.90
33067;DHT22;19428;49.024;8.366;2023-04-29T04:39:20;12.10;99.90
33067;DHT22;19428;49.024;8.366;2023-04-29T04:41:46;12.10;99.90
33067;DHT22;19428;49.024;8.366;2023-04-29T04:44:12;12.10;99.90
33067;DHT22;19428;49.024;8.366;2023-04-29T04:46:38;12.20;99.90
33067;DHT22;19428;49.024;8.366;2023-04-29T04:49:04;12.20;99.90
33067;DHT22;19428;49.024;8.366;2023-04-29T04:51:30;12.10;99.90
33067;DHT22;19428;49.024;8.366;2023-04-29T04:53:56;12.00;99.90
33067;DHT22;19428;49.024;8.366;2023-04-29T04:56:21;12.20;99.90
33067;DHT22;19428;49.024;8.366;2023-04-29T04:58:47;12.30;99.90
33067;DHT22;19428;49.024;8.366;2023-04-29T05:01:12;12.40;99.90
33067;DHT22;19428;49.024;8.366;2023-04-29T05:03:38;12.50;99.90
33067;DHT22;19428;49.024;8.366;2023-04-29T05:06:04;12.60;99.90
33067;DHT22;19428;49.024;8.366;2023-04-29T05:08:30;12.60;99.90
33067;DHT22;19428;49.024;8.366;2023-04-29T05:10:55;12.60;99.90
33067;DHT22;19428;49.024;8.366;2023-04-29T05:13:22;12.70;99.90
33067;DHT22;19428;49.024;8.366;2023-04-29T05:15:50;12.70;99.90
33067;DHT22;19428;49.024;8.366;2023-04-29T05:18:15;12.70;99.90
33067;DHT22;19428;49.024;8.366;2023-04-29T05:20:41;12.70;99.90
33067;DHT22;19428;49.024;8.366;2023-04-29T05:23:07;12.70;99.90
33067;DHT22;19428;49.024;8.366;2023-04-29T05:25:33;12.60;99.90
33067;DHT22;19428;49.024;8.366;2023-04-29T05:27:58;12.50;99.90
33067;DHT22;19428;49.024;8.366;2023-04-29T05:30:24;12.60;99.90
33067;DHT22;19428;49.024;8.366;2023-04-29T05:32:50;12.60;99.90
33067;DHT22;19428;49.024;8.366;2023-04-29T05:35:15;12.50;99.90
33067;DHT22;19428;49.024;8.366;2023-04-29T05:37:41;12.50;99.90
33067;DHT22;19428;49.024;8.366;2023-04-29T05:40:07;12.70;99.90
33067;DHT22;19428;49.024;8.366;2023-04-29T05:42:34;12.80;99.90
33067;DHT22;19428;49.024;8.366;2023-04-29T05:45:00;12.60;99.90
33067;DHT22;19428;49.024;8.366;2023-04-29T05:47:25;12.60;99.90
33067;DHT22;19428;49.024;8.366;2023-04-29T05:49:51;12.70;99.90
33067;DHT22;19428;49.024;8.366;2023-04-29T05:52:16;12.80;99.90
33067;DHT22;19428;49.024;8.366;2023-04-29T05:54:42;13.00;99.90
33067;DHT22;19428;49.024;8.366;2023-04-29T05:57:07;13.00;99.90
33067;DHT22;19428;49.024;8.366;2023-04-29T05:59:33;13.10;99.90
33067;DHT22;19428;49.024;8.366;2023-04-29T06:01:59;13.00;99.90
33067;DHT22;19428;49.024;8.366;2023-04-29T06:04:26;13.10;99.90
33067;DHT22;19428;49.024;8.366;2023-04-29T06:06:52;13.00;99.90
33067;DHT22;19428;49.024;8.366;2023-04-29T06:09:19;13.10;99.90
33067;DHT22;19428;49.024;8.366;2023-04-29T06:11:48;13.00;99.90
33067;DHT22;19428;49.024;8.366;2023-04-29T06:14:13;12.90;99.90
33067;DHT22;19428;49.024;8.366;2023-04-29T06:16:39;12.90;99.90
33067;DHT22;19428;49.024;8.366;2023-04-29T06:19:05;12.90;99.90
33067;DHT22;19428;49.024;8.366;2023-04-29T06:21:31;12.90;99.90
33067;DHT22;19428;49.024;8.366;2023-04-29T06:23:57;12.90;99.90
33067;DHT22;19428;49.024;8.366;2023-04-29T06:26:23;13.00;99.90
33067;DHT22;19428;49.024;8.366;2023-04-29T06:28:49;13.10;99.90
33067;DHT22;19428;49.024;8.366;2023-04-29T06:31:15;13.10;99.90
33067;DHT22;19428;49.024;8.366;2023-04-29T06:33:41;13.20;99.90
33067;DHT22;19428;49.024;8.366;2023-04-29T06:36:07;13.20;99.90
33067;DHT22;19428;49.024;8.366;2023-04-29T06:38:32;13.10;99.90
33067;DHT22;19428;49.024;8.366;2023-04-29T06:40:58;13.10;99.90
33067;DHT22;19428;49.024;8.366;2023-04-29T06:43:29;13.10;99.90
33067;DHT22;19428;49.024;8.366;2023-04-29T06:45:54;13.20;99.90
33067;DHT22;19428;49.024;8.366;2023-04-29T06:48:20;13.20;99.90
33067;DHT22;19428;49.024;8.366;2023-04-29T06:50:54;13.20;99.90
33067;DHT22;19428;49.024;8.366;2023-04-29T06:53:20;13.30;99.90
33067;DHT22;19428;49.024;8.366;2023-04-29T06:55:46;13.30;99.90
33067;DHT22;19428;49.024;8.366;2023-04-29T06:58:16;13.20;99.90
33067;DHT22;19428;49.024;8.366;2023-04-29T07:00:46;13.20;99.90
33067;DHT22;19428;49.024;8.366;2023-04-29T07:03:12;13.20;99.90
33067;DHT22;19428;49.024;8.366;2023-04-29T07:05:37;13.20;99.90
33067;DHT22;19428;49.024;8.366;2023-04-29T07:08:05;13.20;99.90
33067;DHT22;19428;49.024;8.366;2023-04-29T07:10:31;13.20;99.90
33067;DHT22;19428;49.024;8.366;2023-04-29T07:12:56;13.30;99.90
33067;DHT22;19428;49.024;8.366;2023-04-29T07:15:22;13.20;99.90
33067;DHT22;19428;49.024;8.366;2023-04-29T07:17:47;13.40;99.90
33067;DHT22;19428;49.024;8.366;2023-04-29T07:20:13;13.50;99.90
33067;DHT22;19428;49.024;8.366;2023-04-29T07:22:39;13.50;99.90
33067;DHT22;19428;49.024;8.366;2023-04-29T07:25:04;13.70;99.90
33067;DHT22;19428;49.024;8.366;2023-04-29T07:27:33;13.90;99.90
33067;DHT22;19428;49.024;8.366;2023-04-29T07:29:59;14.00;99.90
33067;DHT22;19428;49.024;8.366;2023-04-29T07:32:28;14.20;99.90
33067;DHT22;19428;49.024;8.366;2023-04-29T07:34:56;14.30;99.90
33067;DHT22;19428;49.024;8.366;2023-04-29T07:37:21;14.30;99.90
33067;DHT22;19428;49.024;8.366;2023-04-29T07:39:47;14.30;99.90
33067;DHT22;19428;49.024;8.366;2023-04-29T07:42:13;14.30;99.90
33067;DHT22;19428;49.024;8.366;2023-04-29T07:44:38;14.60;99.90
33067;DHT22;19428;49.024;8.366;2023-04-29T07:47:04;14.50;99.90
33067;DHT22;19428;49.024;8.366;2023-04-29T07:49:30;14.40;99.90
33067;DHT22;19428;49.024;8.366;2023-04-29T07:51:56;14.40;99.90
33067;DHT22;19428;49.024;8.366;2023-04-29T07:54:21;14.20;99.90
33067;DHT22;19428;49.024;8.366;2023-04-29T07:56:48;14.10;99.90
33067;DHT22;19428;49.024;8.366;2023-04-29T07:59:13;14.20;99.90
33067;DHT22;19428;49.024;8.366;2023-04-29T08:01:42;14.20;99.90
33067;DHT22;19428;49.024;8.366;2023-04-29T08:04:08;14.30;99.90
33067;DHT22;19428;49.024;8.366;2023-04-29T08:06:34;14.30;99.90
33067;DHT22;19428;49.024;8.366;2023-04-29T08:09:00;14.20;99.90
33067;DHT22;19428;49.024;8.366;2023-04-29T08:11:26;14.50;99.90
33067;DHT22;19428;49.024;8.366;2023-04-29T08:13:52;14.90;99.90
33067;DHT22;19428;49.024;8.366;2023-04-29T08:16:18;15.50;99.90
33067;DHT22;19428;49.024;8.366;2023-04-29T08:18:44;15.70;99.90
33067;DHT22;19428;49.024;8.366;2023-04-29T08:21:09;15.30;99.90
33067;DHT22;19428;49.024;8.366;2023-04-29T08:23:38;15.10;99.90
33067;DHT22;19428;49.024;8.366;2023-04-29T08:26:04;14.90;99.90
33067;DHT22;19428;49.024;8.366;2023-04-29T08:28:30;14.90;99.90
33067;DHT22;19428;49.024;8.366;2023-04-29T08:30:56;14.90;99.90
33067;DHT22;19428;49.024;8.366;2023-04-29T08:33:22;14.80;99.90
33067;DHT22;19428;49.024;8.366;2023-04-29T08:35:48;14.90;99.90
33067;DHT22;19428;49.024;8.366;2023-04-29T08:38:13;14.80;99.90
33067;DHT22;19428;49.024;8.366;2023-04-29T08:40:44;14.70;99.90
33067;DHT22;19428;49.024;8.366;2023-04-29T08:43:12;15.00;99.90
33067;DHT22;19428;49.024;8.366;2023-04-29T08:45:39;15.30;99.90
33067;DHT22;19428;49.024;8.366;2023-04-29T08:48:08;15.30;99.90
33067;DHT22;19428;49.024;8.366;2023-04-29T08:50:38;15.20;99.90
33067;DHT22;19428;49.024;8.366;2023-04-29T08:53:05;15.70;99.90
33067;DHT22;19428;49.024;8.366;2023-04-29T08:55:35;15.50;99.90
33067;DHT22;19428;49.024;8.366;2023-04-29T08:58:01;15.30;99.90
33067;DHT22;19428;49.024;8.366;2023-04-29T09:00:27;15.30;99.90
33067;DHT22;19428;49.024;8.366;2023-04-29T09:02:56;15.20;99.90
33067;DHT22;19428;49.024;8.366;2023-04-29T09:05:23;15.20;99.90
33067;DHT22;19428;49.024;8.366;2023-04-29T09:07:50;15.20;99.90
33067;DHT22;19428;49.024;8.366;2023-04-29T09:10:17;15.40;99.90
33067;DHT22;19428;49.024;8.366;2023-04-29T09:12:43;15.30;99.90
33067;DHT22;19428;49.024;8.366;2023-04-29T09:15:09;15.20;99.90
33067;DHT22;19428;49.024;8.366;2023-04-29T09:20:27;15.30;99.90
33067;DHT22;19428;49.024;8.366;2023-04-29T09:22:58;15.50;99.90
33067;DHT22;19428;49.024;8.366;2023-04-29T09:25:24;15.60;99.90
33067;DHT22;19428;49.024;8.366;2023-04-29T09:27:50;15.60;99.90
33067;DHT22;19428;49.024;8.366;2023-04-29T09:30:16;15.70;99.90
33067;DHT22;19428;49.024;8.366;2023-04-29T09:32:42;15.70;99.90
33067;DHT22;19428;49.024;8.366;2023-04-29T09:35:22;15.70;99.90
33067;DHT22;19428;49.024;8.366;2023-04-29T09:37:51;15.70;99.90
33067;DHT22;19428;49.024;8.366;2023-04-29T09:40:30;15.80;99.90
33067;DHT22;19428;49.024;8.366;2023-04-29T09:42:56;15.70;99.90
33067;DHT22;19428;49.024;8.366;2023-04-29T09:45:35;15.80;99.90
33067;DHT22;19428;49.024;8.366;2023-04-29T09:48:05;15.80;99.90
33067;DHT22;19428;49.024;8.366;2023-04-29T09:50:34;15.80;99.90
33067;DHT22;19428;49.024;8.366;2023-04-29T09:53:03;15.90;99.90
33067;DHT22;19428;49.024;8.366;2023-04-29T09:55:30;16.20;99.90
33067;DHT22;19428;49.024;8.366;2023-04-29T09:57:56;16.10;99.20
33067;DHT22;19428;49.024;8.366;2023-04-29T10:00:23;16.00;99.90
33067;DHT22;19428;49.024;8.366;2023-04-29T10:02:50;16.10;99.60
33067;DHT22;19428;49.024;8.366;2023-04-29T10:05:18;16.10;99.50
33067;DHT22;19428;49.024;8.366;2023-04-29T10:07:45;15.90;98.80
33067;DHT22;19428;49.024;8.366;2023-04-29T10:10:12;16.00;97.90
33067;DHT22;19428;49.024;8.366;2023-04-29T10:12:42;15.00;99.90
33067;DHT22;19428;49.024;8.366;2023-04-29T10:15:12;14.50;99.90
33067;DHT22;19428;49.024;8.366;2023-04-29T10:17:46;14.40;99.90
33067;DHT22;19428;49.024;8.366;2023-04-29T10:20:14;14.20;99.90
33067;DHT22;19428;49.024;8.366;2023-04-29T10:22:49;14.30;99.90
33067;DHT22;19428;49.024;8.366;2023-04-29T10:25:16;14.30;99.90
33067;DHT22;19428;49.024;8.366;2023-04-29T10:27:43;14.60;99.90
33067;DHT22;19428;49.024;8.366;2023-04-29T10:30:18;15.50;99.90
33067;DHT22;19428;49.024;8.366;2023-04-29T10:32:46;15.00;99.60
33067;DHT22;19428;49.024;8.366;2023-04-29T10:35:13;15.70;98.80
33067;DHT22;19428;49.024;8.366;2023-04-29T10:37:44;15.80;98.20
33067;DHT22;19428;49.024;8.366;2023-04-29T10:40:26;16.60;96.60
33067;DHT22;19428;49.024;8.366;2023-04-29T10:42:53;15.30;95.80
33067;DHT22;19428;49.024;8.366;2023-04-29T10:45:21;14.70;99.90
33067;DHT22;19428;49.024;8.366;2023-04-29T10:50:32;15.00;96.80
33067;DHT22;19428;49.024;8.366;2023-04-29T10:53:01;14.70;99.80
33067;DHT22;19428;49.024;8.366;2023-04-29T10:55:26;14.30;99.90
33067;DHT22;19428;49.024;8.366;2023-04-29T10:57:53;14.70;99.90
33067;DHT22;19428;49.024;8.366;2023-04-29T11:00:41;14.60;99.40
33067;DHT22;19428;49.024;8.366;2023-04-29T11:03:06;14.20;99.90
33067;DHT22;19428;49.024;8.366;2023-04-29T11:05:36;14.40;99.90
33067;DHT22;19428;49.024;8.366;2023-04-29T11:08:28;14.60;99.90
33067;DHT22;19428;49.024;8.366;2023-04-29T11:10:59;14.60;99.90
33067;DHT22;19428;49.024;8.366;2023-04-29T11:13:30;14.50;99.90
33067;DHT22;19428;49.024;8.366;2023-04-29T11:16:10;14.40;99.90
33067;DHT22;19428;49.024;8.366;2023-04-29T11:19:06;14.50;99.90
33067;DHT22;19428;49.024;8.366;2023-04-29T11:21:34;14.70;99.90
33067;DHT22;19428;49.024;8.366;2023-04-29T11:24:02;14.40;99.90
33067;DHT22;19428;49.024;8.366;2023-04-29T11:26:29;14.60;99.90
33067;DHT22;19428;49.024;8.366;2023-04-29T11:28:55;14.70;99.90
33067;DHT22;19428;49.024;8.366;2023-04-29T11:31:31;14.80;99.90
33067;DHT22;19428;49.024;8.366;2023-04-29T11:33:58;14.50;99.90
33067;DHT22;19428;49.024;8.366;2023-04-29T11:36:24;14.30;99.90
33067;DHT22;19428;49.024;8.366;2023-04-29T11:38:52;14.30;99.90
33067;DHT22;19428;49.024;8.366;2023-04-29T11:41:17;14.40;99.90
33067;DHT22;19428;49.024;8.366;2023-04-29T11:43:46;14.30;99.90
33067;DHT22;19428;49.024;8.366;2023-04-29T11:46:13;14.30;99.90
33067;DHT22;19428;49.024;8.366;2023-04-29T11:48:48;14.50;99.90
33067;DHT22;19428;49.024;8.366;2023-04-29T11:51:16;14.50;97.90
33067;DHT22;19428;49.024;8.366;2023-04-29T11:53:43;14.90;98.40
33067;DHT22;19428;49.024;8.366;2023-04-29T11:56:09;14.60;98.20
33067;DHT22;19428;49.024;8.366;2023-04-29T11:58:37;15.10;95.60
33067;DHT22;19428;49.024;8.366;2023-04-29T12:01:03;15.20;94.50
33067;DHT22;19428;49.024;8.366;2023-04-29T12:03:31;15.50;94.00
33067;DHT22;19428;49.024;8.366;2023-04-29T12:05:58;15.40;96.00
33067;DHT22;19428;49.024;8.366;2023-04-29T12:08:24;15.20;94.90
33067;DHT22;19428;49.024;8.366;2023-04-29T12:10:55;15.60;93.10
33067;DHT22;19428;49.024;8.366;2023-04-29T12:13:22;15.90;93.20
33067;DHT22;19428;49.024;8.366;2023-04-29T12:15:49;15.90;93.20
33067;DHT22;19428;49.024;8.366;2023-04-29T12:18:18;15.60;91.60
33067;DHT22;19428;49.024;8.366;2023-04-29T12:20:49;15.50;93.70
33067;DHT22;19428;49.024;8.366;2023-04-29T12:23:21;15.40;93.80
33067;DHT22;19428;49.024;8.366;2023-04-29T12:26:00;15.10;93.10
33067;DHT22;19428;49.024;8.366;2023-04-29T12:28:27;15.30;93.50
33067;DHT22;19428;49.024;8.366;2023-04-29T12:30:55;15.60;93.30
33067;DHT22;19428;49.024;8.366;2023-04-29T12:33:22;15.50;92.50
33067;DHT22;19428;49.024;8.366;2023-04-29T12:35:53;15.30;94.90
33067;DHT22;19428;49.024;8.366;2023-04-29T12:38:26;15.80;90.20
33067;DHT22;19428;49.024;8.366;2023-04-29T12:40:58;15.80;90.10
33067;DHT22;19428;49.024;8.366;2023-04-29T12:43:29;16.10;90.40
33067;DHT22;19428;49.024;8.366;2023-04-29T12:46:03;15.90;89.30
33067;DHT22;19428;49.024;8.366;2023-04-29T12:48:32;16.20;88.80
33067;DHT22;19428;49.024;8.366;2023-04-29T12:50:59;16.10;87.50
33067;DHT22;19428;49.024;8.366;2023-04-29T12:53:25;16.20;83.90
33067;DHT22;19428;49.024;8.366;2023-04-29T12:55:52;15.70;87.20
33067;DHT22;19428;49.024;8.366;2023-04-29T12:58:18;15.40;90.50
33067;DHT22;19428;49.024;8.366;2023-04-29T13:00:46;15.20;90.40
33067;DHT22;19428;49.024;8.366;2023-04-29T13:03:12;15.60;90.60
33067;DHT22;19428;49.024;8.366;2023-04-29T13:05:37;15.90;87.20
33067;DHT22;19428;49.024;8.366;2023-04-29T13:08:06;16.10;85.00
33067;DHT22;19428;49.024;8.366;2023-04-29T13:10:40;16.10;83.60
33067;DHT22;19428;49.024;8.366;2023-04-29T13:13:06;16.40;83.90
33067;DHT22;19428;49.024;8.366;2023-04-29T13:15:34;16.10;85.70
33067;DHT22;19428;49.024;8.366;2023-04-29T13:18:00;15.70;85.90
33067;DHT22;19428;49.024;8.366;2023-04-29T13:20:28;16.30;83.00
33067;DHT22;19428;49.024;8.366;2023-04-29T13:22:55;16.20;82.60
33067;DHT22;19428;49.024;8.366;2023-04-29T13:25:20;15.50;83.90
33067;DHT22;19428;49.024;8.366;2023-04-29T13:27:46;15.30;84.80
33067;DHT22;19428;49.024;8.366;2023-04-29T13:30:17;15.20;89.60
33067;DHT22;19428;49.024;8.366;2023-04-29T13:32:45;15.30;87.70
33067;DHT22;19428;49.024;8.366;2023-04-29T13:35:10;15.50;86.90
33067;DHT22;19428;49.024;8.366;2023-04-29T13:37:56;15.40;88.60
33067;DHT22;19428;49.024;8.366;2023-04-29T13:40:46;15.40;90.10
33067;DHT22;19428;49.024;8.366;2023-04-29T13:43:24;15.50;91.50
33067;DHT22;19428;49.024;8.366;2023-04-29T13:46:09;15.60;89.70
33067;DHT22;19428;49.024;8.366;2023-04-29T13:48:40;15.10;90.90
33067;DHT22;19428;49.024;8.366;2023-04-29T13:51:25;15.10;91.30
33067;DHT22;19428;49.024;8.366;2023-04-29T13:54:10;15.40;91.10
33067;DHT22;19428;49.024;8.366;2023-04-29T13:56:53;15.50;89.70
33067;DHT22;19428;49.024;8.366;2023-04-29T14:00:21;15.20;90.80
33067;DHT22;19428;49.024;8.366;2023-04-29T14:03:03;15.10;91.90
33067;DHT22;19428;49.024;8.366;2023-04-29T14:05:40;15.00;92.10
33067;DHT22;19428;49.024;8.366;2023-04-29T14:08:08;15.00;91.60
33067;DHT22;19428;49.024;8.366;2023-04-29T14:10:36;14.90;92.20
33067;DHT22;19428;49.024;8.366;2023-04-29T14:13:02;15.00;93.30
33067;DHT22;19428;49.024;8.366;2023-04-29T14:15:30;14.70;93.30
33067;DHT22;19428;49.024;8.366;2023-04-29T14:18:05;14.80;93.10
33067;DHT22;19428;49.024;8.366;2023-04-29T14:20:34;14.90;93.60
33067;DHT22;19428;49.024;8.366;2023-04-29T14:23:02;14.60;94.30
33067;DHT22;19428;49.024;8.366;2023-04-29T14:25:32;15.00;94.60
33067;DHT22;19428;49.024;8.366;2023-04-29T14:27:58;15.10;96.60
33067;DHT22;19428;49.024;8.366;2023-04-29T14:30:24;14.80;94.10
33067;DHT22;19428;49.024;8.366;2023-04-29T14:32:49;14.70;95.90
33067;DHT22;19428;49.024;8.366;2023-04-29T14:35:15;14.40;95.50
33067;DHT22;19428;49.024;8.366;2023-04-29T14:37:41;14.60;94.80
33067;DHT22;19428;49.024;8.366;2023-04-29T14:40:08;14.60;94.50
33067;DHT22;19428;49.024;8.366;2023-04-29T14:42:34;14.60;94.60
33067;DHT22;19428;49.024;8.366;2023-04-29T14:45:00;14.40;95.10
33067;DHT22;19428;49.024;8.366;2023-04-29T14:47:26;14.40;95.10
33067;DHT22;19428;49.024;8.366;2023-04-29T14:49:53;14.30;95.20
33067;DHT22;19428;49.024;8.366;2023-04-29T14:52:18;14.30;96.10
33067;DHT22;19428;49.024;8.366;2023-04-29T14:54:44;14.50;95.70
33067;DHT22;19428;49.024;8.366;2023-04-29T14:57:10;14.40;94.80
33067;DHT22;19428;49.024;8.366;2023-04-29T14:59:36;14.50;94.40
33067;DHT22;19428;49.024;8.366;2023-04-29T15:02:01;14.30;96.20
33067;DHT22;19428;49.024;8.366;2023-04-29T15:04:27;14.30;94.70
33067;DHT22;19428;49.024;8.366;2023-04-29T15:06:53;14.20;95.00
33067;DHT22;19428;49.024;8.366;2023-04-29T15:09:19;14.30;94.30
33067;DHT22;19428;49.024;8.366;2023-04-29T15:11:44;14.40;93.80
33067;DHT22;19428;49.024;8.366;2023-04-29T15:14:10;14.40;93.70
33067;DHT22;19428;49.024;8.366;2023-04-29T15:16:36;14.30;93.70
33067;DHT22;19428;49.024;8.366;2023-04-29T15:19:01;14.30;94.10
33067;DHT22;19428;49.024;8.366;2023-04-29T15:21:27;14.20;95.40
33067;DHT22;19428;49.024;8.366;2023-04-29T15:23:53;14.20;94.80
33067;DHT22;19428;49.024;8.366;2023-04-29T15:26:19;14.20;94.80
33067;DHT22;19428;49.024;8.366;2023-04-29T15:28:46;14.10;94.30
33067;DHT22;19428;49.024;8.366;2023-04-29T15:31:12;14.40;95.70
33067;DHT22;19428;49.024;8.366;2023-04-29T15:33:38;14.50;95.20
33067;DHT22;19428;49.024;8.366;2023-04-29T15:36:05;14.50;93.80
33067;DHT22;19428;49.024;8.366;2023-04-29T15:38:30;14.30;93.80
33067;DHT22;19428;49.024;8.366;2023-04-29T15:40:59;14.50;93.60
33067;DHT22;19428;49.024;8.366;2023-04-29T15:43:29;14.40;93.50
33067;DHT22;19428;49.024;8.366;2023-04-29T15:45:57;14.40;95.50
33067;DHT22;19428;49.024;8.366;2023-04-29T15:48:23;14.30;94.70
33067;DHT22;19428;49.024;8.366;2023-04-29T15:50:49;14.20;93.80
33067;DHT22;19428;49.024;8.366;2023-04-29T15:53:15;14.20;94.30